Time;durP1;ratioP1;P1;durP2;ratioP2;P2;SDS_P1;SDS_P2;PMS_P1;PMS_P2;Temp;Humidity;BMP_temperature;BMP_pressure;BME280_temperature;BME280_humidity;BME280_pressure;Samples;Min_cycle;Max_cycle;Signal;HPM_P1;HPM_P2
2022/01/29 00:01:40;;;;;;;1.50;1.40;;;5.00;99.90;;;;;;4996129;28;20486;-90
2022/01/29 00:04:05;;;;;;;0.90;0.80;;;5.00;99.90;;;;;;4998383;28;20191;-90
2022/01/29 00:06:31;;;;;;;0.90;0.80;;;5.00;99.90;;;;;;5002097;28;20223;-90
2022/01/29 00:09:13;;;;;;;1.00;0.90;;;4.90;99.90;;;;;;4998557;28;20653;-90
2022/01/29 00:11:39;;;;;;;0.90;0.80;;;4.80;99.90;;;;;;4988628;28;20339;-91
2022/01/29 00:14:06;;;;;;;0.80;0.70;;;4.80;99.90;;;;;;4996582;28;20538;-91
2022/01/29 00:16:32;;;;;;;1.00;0.90;;;4.80;99.90;;;;;;5004424;28;20570;-89
2022/01/29 00:18:57;;;;;;;1.00;0.90;;;4.80;99.90;;;;;;5004507;28;20445;-90
2022/01/29 00:21:23;;;;;;;0.90;0.80;;;4.70;99.90;;;;;;4997319;28;20864;-90
2022/01/29 00:23:48;;;;;;;0.90;0.80;;;4.70;99.90;;;;;;5007722;28;20188;-90
2022/01/29 00:26:16;;;;;;;2.23;1.23;;;4.70;99.90;;;;;;4982897;28;20656;-89
2022/01/29 00:28:41;;;;;;;1.20;1.10;;;4.60;99.90;;;;;;4994011;28;20231;-89
2022/01/29 00:31:10;;;;;;;0.83;0.70;;;4.70;99.90;;;;;;5003218;28;20845;-88
2022/01/29 00:33:37;;;;;;;1.10;1.00;;;4.60;99.90;;;;;;5004561;28;20181;-89
2022/01/29 00:36:02;;;;;;;1.00;0.90;;;4.60;99.90;;;;;;5007227;28;20547;-89
2022/01/29 00:38:28;;;;;;;0.90;0.80;;;4.60;99.90;;;;;;5006755;28;20451;-90
2022/01/29 00:40:54;;;;;;;1.20;1.10;;;4.60;99.90;;;;;;4999049;28;20261;-90
2022/01/29 00:43:19;;;;;;;0.90;0.80;;;4.60;99.90;;;;;;5005881;28;20223;-89
2022/01/29 00:45:45;;;;;;;0.90;0.70;;;4.70;99.90;;;;;;5007339;28;21195;-89
2022/01/29 00:48:10;;;;;;;3.57;1.87;;;4.70;99.90;;;;;;5002182;28;20212;-90
2022/01/29 00:50:36;;;;;;;2.30;1.73;;;4.70;99.90;;;;;;5007331;28;20243;-89
2022/01/29 00:53:01;;;;;;;1.20;1.10;;;4.70;99.90;;;;;;5004262;28;20561;-90
2022/01/29 00:55:27;;;;;;;1.20;1.10;;;4.70;99.90;;;;;;5008525;28;20200;-91
2022/01/29 00:57:52;;;;;;;0.87;0.80;;;4.70;99.90;;;;;;5005602;28;20211;-91
2022/01/29 01:00:18;;;;;;;1.40;1.30;;;4.70;99.90;;;;;;5002933;28;20208;-90
2022/01/29 01:02:44;;;;;;;0.90;0.80;;;4.70;99.90;;;;;;5002000;28;20288;-88
2022/01/29 01:05:12;;;;;;;1.00;0.90;;;4.80;99.90;;;;;;4986654;28;20206;-89
2022/01/29 01:07:38;;;;;;;2.40;2.30;;;4.80;99.90;;;;;;5000635;28;20189;-89
2022/01/29 01:10:06;;;;;;;2.33;2.10;;;4.80;99.90;;;;;;5008948;28;20801;-90
2022/01/29 01:12:32;;;;;;;0.80;0.70;;;4.80;99.90;;;;;;5011969;28;20203;-89
2022/01/29 01:14:57;;;;;;;1.53;1.43;;;4.80;99.90;;;;;;4985303;28;20439;-89
2022/01/29 01:17:23;;;;;;;1.10;1.00;;;4.80;99.90;;;;;;4982889;28;20192;-89
2022/01/29 01:19:48;;;;;;;0.90;0.80;;;4.80;99.90;;;;;;4983012;28;20566;-88
2022/01/29 01:22:16;;;;;;;1.37;1.27;;;4.80;99.90;;;;;;4999763;28;20200;-88
2022/01/29 01:24:42;;;;;;;1.33;1.23;;;4.90;99.90;;;;;;5003922;28;21621;-89
2022/01/29 01:27:07;;;;;;;0.80;0.80;;;4.90;99.90;;;;;;5001168;28;20538;-88
2022/01/29 01:29:33;;;;;;;1.10;1.00;;;4.90;99.90;;;;;;5004744;28;20184;-89
2022/01/29 01:31:59;;;;;;;0.80;0.73;;;4.90;99.90;;;;;;5001288;28;20310;-89
2022/01/29 01:34:27;;;;;;;1.23;1.13;;;4.90;99.90;;;;;;4985552;28;20180;-88
2022/01/29 01:36:58;;;;;;;3.00;1.60;;;4.90;99.90;;;;;;4998977;28;20251;-88
2022/01/29 01:39:29;;;;;;;0.97;0.87;;;4.90;99.90;;;;;;4988301;28;20809;-87
2022/01/29 01:42:05;;;;;;;1.73;1.63;;;4.90;99.90;;;;;;4980966;28;20458;-87
2022/01/29 01:44:42;;;;;;;0.80;0.70;;;4.90;99.90;;;;;;4997842;28;20474;-87
2022/01/29 01:47:08;;;;;;;2.03;1.43;;;4.90;99.90;;;;;;5003910;28;20447;-87
2022/01/29 01:49:34;;;;;;;2.30;1.67;;;5.00;99.90;;;;;;4980734;28;20474;-88
2022/01/29 01:52:00;;;;;;;1.77;1.67;;;4.90;99.90;;;;;;4979797;28;20521;-86
2022/01/29 01:54:26;;;;;;;1.77;1.67;;;5.00;99.90;;;;;;5001459;28;20471;-86
2022/01/29 01:56:51;;;;;;;0.90;0.90;;;5.00;99.90;;;;;;5003813;28;20658;-86
2022/01/29 01:59:17;;;;;;;0.80;0.60;;;5.00;99.90;;;;;;4999059;28;20212;-87
2022/01/29 02:01:42;;;;;;;0.90;0.90;;;5.00;99.90;;;;;;4998122;28;20227;-85
2022/01/29 02:04:08;;;;;;;1.00;0.90;;;5.10;99.90;;;;;;5003410;28;20191;-85
2022/01/29 02:06:34;;;;;;;1.63;1.50;;;5.10;99.90;;;;;;5000791;28;20196;-85
2022/01/29 02:09:00;;;;;;;8.80;3.13;;;5.10;99.90;;;;;;4996161;28;21207;-85
2022/01/29 02:11:28;;;;;;;0.80;0.80;;;5.10;99.90;;;;;;5005987;28;20218;-86
2022/01/29 02:13:56;;;;;;;1.67;1.43;;;5.10;99.90;;;;;;4999617;28;20447;-85
2022/01/29 02:16:22;;;;;;;1.20;1.10;;;5.20;99.90;;;;;;5000195;28;20525;-85
2022/01/29 02:18:47;;;;;;;1.40;1.30;;;5.20;99.90;;;;;;4997311;28;21322;-85
2022/01/29 02:21:15;;;;;;;1.50;1.40;;;5.20;99.90;;;;;;4995719;28;20203;-84
2022/01/29 02:23:40;;;;;;;0.80;0.70;;;5.20;99.90;;;;;;4988076;28;20192;-85
2022/01/29 02:26:06;;;;;;;0.80;0.70;;;5.20;99.90;;;;;;4998796;28;20446;-84
2022/01/29 02:28:32;;;;;;;1.40;1.07;;;5.30;99.90;;;;;;4981135;28;21557;-85
2022/01/29 02:31:05;;;;;;;0.90;0.80;;;5.30;99.90;;;;;;4980530;28;20255;-84
2022/01/29 02:33:32;;;;;;;0.90;0.80;;;5.30;99.90;;;;;;4997850;28;20215;-85
2022/01/29 02:35:58;;;;;;;0.80;0.80;;;5.30;99.90;;;;;;4996335;28;20487;-84
2022/01/29 02:38:26;;;;;;;2.43;2.30;;;5.30;99.90;;;;;;4997818;28;20952;-86
2022/01/29 02:40:54;;;;;;;0.90;0.90;;;5.30;99.90;;;;;;4987445;28;20196;-86
2022/01/29 02:43:25;;;;;;;0.80;0.80;;;5.40;99.90;;;;;;4995999;28;20450;-86
2022/01/29 02:45:52;;;;;;;0.80;0.70;;;5.40;99.90;;;;;;4998288;28;20955;-85
2022/01/29 02:48:18;;;;;;;2.00;1.90;;;5.40;99.90;;;;;;4999660;28;20451;-85
2022/01/29 02:50:44;;;;;;;0.80;0.70;;;5.40;99.90;;;;;;5001094;28;20962;-86
2022/01/29 02:53:10;;;;;;;0.80;0.80;;;5.40;99.90;;;;;;5000152;28;20196;-85
2022/01/29 02:55:35;;;;;;;0.80;0.70;;;5.40;99.90;;;;;;4986045;28;20446;-85
2022/01/29 02:58:02;;;;;;;0.80;0.70;;;5.40;99.90;;;;;;5002331;28;20231;-84
2022/01/29 03:00:27;;;;;;;1.00;0.90;;;5.50;99.90;;;;;;4997295;28;20200;-86
2022/01/29 03:02:53;;;;;;;0.77;0.63;;;5.40;99.90;;;;;;4995307;28;20448;-84
2022/01/29 03:05:19;;;;;;;0.80;0.70;;;5.50;99.90;;;;;;4997139;28;20273;-85
2022/01/29 03:07:45;;;;;;;1.20;1.10;;;5.50;99.90;;;;;;4978954;28;20547;-85
2022/01/29 03:10:11;;;;;;;2.10;2.00;;;5.50;99.90;;;;;;5004840;28;20222;-86
2022/01/29 03:12:40;;;;;;;1.27;1.17;;;5.50;99.90;;;;;;5008720;28;20443;-86
2022/01/29 03:15:07;;;;;;;0.80;0.70;;;5.60;99.90;;;;;;5003169;28;20180;-85
2022/01/29 03:17:33;;;;;;;0.80;0.70;;;5.60;99.90;;;;;;4997816;28;20489;-85
2022/01/29 03:19:58;;;;;;;3.13;1.63;;;5.60;99.90;;;;;;4985923;28;20471;-86
2022/01/29 03:22:24;;;;;;;1.17;1.07;;;5.70;99.90;;;;;;4982714;28;20667;-86
2022/01/29 03:24:49;;;;;;;0.80;0.70;;;5.70;99.90;;;;;;5001835;28;20191;-86
2022/01/29 03:27:15;;;;;;;1.03;0.93;;;5.70;99.90;;;;;;4999968;28;20554;-86
2022/01/29 03:29:40;;;;;;;1.00;0.90;;;5.70;99.90;;;;;;4998429;28;20291;-86
2022/01/29 03:32:06;;;;;;;3.80;2.10;;;5.80;99.90;;;;;;4996743;28;20306;-86
2022/01/29 03:34:32;;;;;;;2.30;2.20;;;5.80;99.90;;;;;;5002195;28;20267;-85
2022/01/29 03:36:58;;;;;;;0.80;0.80;;;5.80;99.90;;;;;;4996759;28;20566;-85
2022/01/29 03:39:25;;;;;;;1.03;0.93;;;5.80;99.90;;;;;;4996274;28;20181;-85
2022/01/29 03:41:52;;;;;;;0.70;0.60;;;5.80;99.90;;;;;;5006566;28;20214;-86
2022/01/29 03:44:17;;;;;;;0.80;0.80;;;5.90;99.90;;;;;;4980714;28;20431;-86
2022/01/29 03:46:45;;;;;;;0.70;0.60;;;6.00;99.90;;;;;;4996185;28;20455;-85
2022/01/29 03:49:10;;;;;;;3.33;3.13;;;6.00;99.90;;;;;;4996693;28;20180;-86
2022/01/29 03:51:36;;;;;;;0.70;0.60;;;5.90;99.90;;;;;;5000829;28;20494;-86
2022/01/29 03:54:01;;;;;;;0.80;0.67;;;6.00;99.90;;;;;;4995889;28;20648;-85
2022/01/29 03:56:27;;;;;;;1.13;1.07;;;6.00;99.90;;;;;;4996901;28;20280;-84
2022/01/29 03:58:52;;;;;;;1.17;1.07;;;6.00;99.90;;;;;;4999647;28;20218;-85
2022/01/29 04:01:18;;;;;;;0.80;0.70;;;6.10;99.90;;;;;;4995567;28;20636;-85
2022/01/29 04:03:45;;;;;;;0.70;0.70;;;6.10;99.90;;;;;;5002034;28;20275;-86
2022/01/29 04:06:11;;;;;;;0.70;0.70;;;6.10;99.90;;;;;;5002119;28;20189;-86
2022/01/29 04:08:41;;;;;;;0.70;0.70;;;6.10;99.90;;;;;;5000150;28;20996;-85
2022/01/29 04:11:08;;;;;;;0.77;0.63;;;6.10;99.90;;;;;;5005348;28;20486;-86
2022/01/29 04:13:33;;;;;;;0.80;0.70;;;6.10;99.90;;;;;;4982764;28;20451;-87
2022/01/29 04:15:59;;;;;;;0.70;0.60;;;6.10;99.90;;;;;;5002585;28;20454;-85
2022/01/29 04:18:24;;;;;;;0.70;0.60;;;6.20;99.90;;;;;;5003136;28;20184;-86
2022/01/29 04:20:50;;;;;;;0.70;0.70;;;6.20;99.90;;;;;;5002916;28;20279;-86
2022/01/29 04:23:15;;;;;;;0.70;0.60;;;6.20;99.90;;;;;;5007701;28;20738;-85
2022/01/29 04:25:41;;;;;;;0.70;0.60;;;6.20;99.90;;;;;;5007738;28;20202;-85
2022/01/29 04:28:10;;;;;;;0.70;0.60;;;6.20;99.90;;;;;;5003503;28;20564;-86
2022/01/29 04:30:44;;;;;;;0.70;0.60;;;6.20;99.90;;;;;;5003990;28;20259;-85
2022/01/29 04:35:41;;;;;;;0.70;0.60;;;6.20;99.90;;;;;;5002108;28;20553;-85
2022/01/29 04:38:07;;;;;;;1.53;1.43;;;6.20;99.90;;;;;;5008635;28;20439;-85
2022/01/29 04:40:35;;;;;;;0.80;0.63;;;6.20;99.90;;;;;;5002468;28;20187;-84
2022/01/29 04:43:01;;;;;;;0.80;0.70;;;6.20;99.90;;;;;;4981197;28;20195;-84
2022/01/29 04:45:26;;;;;;;0.70;0.67;;;6.30;99.90;;;;;;4987993;28;20462;-84
2022/01/29 04:47:52;;;;;;;1.17;1.07;;;6.30;99.90;;;;;;5003045;28;20443;-84
2022/01/29 04:50:17;;;;;;;0.70;0.60;;;6.30;99.90;;;;;;5001435;28;20227;-85
2022/01/29 04:52:43;;;;;;;0.70;0.60;;;6.30;99.90;;;;;;4999566;28;20787;-85
2022/01/29 04:55:10;;;;;;;0.80;0.80;;;6.30;99.90;;;;;;5002716;28;20243;-85
2022/01/29 04:57:37;;;;;;;0.90;0.90;;;6.30;99.90;;;;;;5005927;28;20579;-85
2022/01/29 05:00:07;;;;;;;0.70;0.60;;;6.30;99.90;;;;;;5003126;28;20940;-86
2022/01/29 05:02:33;;;;;;;0.80;0.80;;;6.30;99.90;;;;;;5009027;28;20928;-85
2022/01/29 05:04:59;;;;;;;0.70;0.60;;;6.30;99.90;;;;;;5000224;28;20485;-84
2022/01/29 05:07:24;;;;;;;0.70;0.60;;;6.30;99.90;;;;;;5003466;28;21254;-84
2022/01/29 05:09:50;;;;;;;0.70;0.60;;;6.30;99.90;;;;;;5001179;28;20197;-84
2022/01/29 05:12:21;;;;;;;0.80;0.63;;;6.30;99.90;;;;;;4997255;28;20888;-85
2022/01/29 05:15:05;;;;;;;1.37;1.27;;;6.40;99.90;;;;;;4997136;28;20802;-85
2022/01/29 05:28:27;;;;;;;1.57;1.47;;;6.50;99.90;;;;;;5001521;28;20502;-83
2022/01/29 05:30:53;;;;;;;0.70;0.60;;;6.50;99.90;;;;;;4996909;28;20873;-84
2022/01/29 05:33:18;;;;;;;0.70;0.60;;;6.50;99.90;;;;;;5002965;28;20208;-84
2022/01/29 05:35:44;;;;;;;0.70;0.60;;;6.50;99.90;;;;;;4978440;28;20236;-84
2022/01/29 05:38:09;;;;;;;0.70;0.60;;;6.50;99.90;;;;;;4981185;28;20275;-83
2022/01/29 05:40:35;;;;;;;0.73;0.73;;;6.50;99.90;;;;;;5007909;28;20557;-85
2022/01/29 05:43:00;;;;;;;0.77;0.70;;;6.50;99.90;;;;;;4979595;28;20192;-83
2022/01/29 05:45:26;;;;;;;0.97;0.80;;;6.60;99.90;;;;;;4998300;28;20191;-83
2022/01/29 05:47:52;;;;;;;1.23;1.13;;;6.60;99.90;;;;;;5000714;28;20188;-84
2022/01/29 05:50:17;;;;;;;0.70;0.70;;;6.60;99.90;;;;;;5000994;28;20184;-84
2022/01/29 05:52:43;;;;;;;2.40;1.67;;;6.60;99.90;;;;;;4998952;28;20614;-84
2022/01/29 05:55:08;;;;;;;3.27;1.53;;;6.60;99.90;;;;;;4984094;28;20188;-84
2022/01/29 05:57:34;;;;;;;2.27;2.07;;;6.60;99.90;;;;;;5008771;28;20188;-85
2022/01/29 05:59:59;;;;;;;2.80;1.90;;;6.60;99.90;;;;;;5010625;28;21119;-83
2022/01/29 06:02:25;;;;;;;1.30;1.20;;;6.70;99.90;;;;;;4989798;28;20185;-83
2022/01/29 06:04:50;;;;;;;1.53;1.33;;;6.70;99.90;;;;;;5001133;28;20200;-84
2022/01/29 06:07:16;;;;;;;1.73;1.43;;;6.70;99.90;;;;;;5006240;28;20192;-85
2022/01/29 06:09:42;;;;;;;0.70;0.70;;;6.70;99.90;;;;;;5005653;28;20668;-85
2022/01/29 06:12:07;;;;;;;0.70;0.70;;;6.70;99.90;;;;;;4996093;28;20346;-84
2022/01/29 06:14:33;;;;;;;0.70;0.60;;;6.70;99.90;;;;;;5006418;28;20180;-84
2022/01/29 06:16:58;;;;;;;2.50;2.40;;;6.70;99.90;;;;;;5008265;28;20299;-84
2022/01/29 06:19:24;;;;;;;0.90;0.80;;;6.70;99.90;;;;;;5004795;28;20938;-84
2022/01/29 06:21:50;;;;;;;0.70;0.70;;;6.70;99.90;;;;;;5009088;28;20223;-84
2022/01/29 06:24:15;;;;;;;1.13;1.03;;;6.70;99.90;;;;;;5007621;28;20257;-83
2022/01/29 06:26:41;;;;;;;0.87;0.87;;;6.80;99.90;;;;;;4989109;28;20648;-82
2022/01/29 06:29:06;;;;;;;0.70;0.60;;;6.80;99.90;;;;;;5009582;28;20190;-83
2022/01/29 06:31:32;;;;;;;0.90;0.90;;;6.80;99.90;;;;;;5004817;28;20246;-83
2022/01/29 06:33:57;;;;;;;1.80;1.57;;;6.80;99.90;;;;;;5004186;28;20180;-84
2022/01/29 06:36:23;;;;;;;2.73;1.63;;;6.80;99.90;;;;;;4989057;28;20664;-85
2022/01/29 06:38:48;;;;;;;0.70;0.60;;;6.80;99.90;;;;;;5007455;28;20195;-85
2022/01/29 06:41:14;;;;;;;0.70;0.60;;;6.80;99.90;;;;;;4999106;28;20185;-84
2022/01/29 06:43:39;;;;;;;0.70;0.60;;;6.80;99.90;;;;;;5006402;28;20214;-85
2022/01/29 06:46:05;;;;;;;0.70;0.60;;;6.90;99.90;;;;;;4985894;28;20196;-85
2022/01/29 06:48:30;;;;;;;0.70;0.60;;;6.90;99.90;;;;;;5006374;28;20192;-83
2022/01/29 06:50:56;;;;;;;0.70;0.60;;;6.90;99.90;;;;;;4989508;28;20235;-84
2022/01/29 06:53:21;;;;;;;0.70;0.70;;;6.90;99.90;;;;;;5007431;28;20644;-84
2022/01/29 06:55:47;;;;;;;1.77;1.07;;;6.90;99.90;;;;;;5009547;28;20180;-85
2022/01/29 06:58:12;;;;;;;0.70;0.60;;;6.90;99.90;;;;;;5008474;28;20195;-85
2022/01/29 07:00:40;;;;;;;1.07;1.07;;;7.00;99.90;;;;;;4989845;28;20188;-83
2022/01/29 07:03:06;;;;;;;0.93;0.93;;;6.90;99.90;;;;;;4983928;28;20184;-85
2022/01/29 07:05:31;;;;;;;0.87;0.87;;;7.00;99.90;;;;;;5009190;28;20435;-85
2022/01/29 07:07:57;;;;;;;1.07;0.97;;;7.00;99.90;;;;;;4988361;28;20195;-84
2022/01/29 07:10:23;;;;;;;0.83;0.83;;;6.90;99.90;;;;;;5008363;28;20231;-84
2022/01/29 07:12:48;;;;;;;0.70;0.60;;;7.00;99.90;;;;;;4999698;28;20207;-84
2022/01/29 07:15:14;;;;;;;0.70;0.70;;;6.90;99.90;;;;;;4989502;28;20462;-84
2022/01/29 07:17:40;;;;;;;1.40;1.13;;;7.00;99.90;;;;;;4986499;28;20184;-83
2022/01/29 07:20:07;;;;;;;3.10;2.70;;;7.00;99.90;;;;;;5009931;28;20186;-84
2022/01/29 07:22:33;;;;;;;0.70;0.60;;;7.00;99.90;;;;;;5006522;28;20798;-85
2022/01/29 07:24:58;;;;;;;1.13;0.90;;;7.00;99.90;;;;;;5006363;28;20461;-84
2022/01/29 07:27:24;;;;;;;0.70;0.60;;;7.00;99.90;;;;;;5000825;28;20951;-84
2022/01/29 07:29:49;;;;;;;1.23;1.13;;;7.00;99.90;;;;;;5004350;28;20196;-85
2022/01/29 07:32:15;;;;;;;0.70;0.60;;;7.00;99.90;;;;;;4987619;28;20254;-84
2022/01/29 07:34:41;;;;;;;0.70;0.60;;;7.00;99.90;;;;;;5006035;28;20223;-85
2022/01/29 07:37:06;;;;;;;0.70;0.70;;;7.00;99.90;;;;;;4990923;28;20231;-85
2022/01/29 07:39:32;;;;;;;2.73;1.23;;;7.00;99.90;;;;;;4993319;28;20247;-81
2022/01/29 07:41:58;;;;;;;1.03;1.03;;;7.00;99.90;;;;;;5010746;28;20188;-83
2022/01/29 07:44:24;;;;;;;0.80;0.80;;;7.00;99.90;;;;;;5008908;28;20196;-83
2022/01/29 07:46:50;;;;;;;0.70;0.70;;;7.00;99.90;;;;;;5011152;28;20196;-82
2022/01/29 07:49:16;;;;;;;0.80;0.70;;;7.00;99.90;;;;;;5006598;28;20475;-82
2022/01/29 07:51:42;;;;;;;2.20;1.00;;;7.00;99.90;;;;;;5006947;28;20521;-82
2022/01/29 07:54:08;;;;;;;1.37;1.27;;;7.00;99.90;;;;;;4991079;28;20185;-83
2022/01/29 07:56:34;;;;;;;1.17;1.07;;;7.00;99.90;;;;;;5007513;28;20666;-84
2022/01/29 07:59:00;;;;;;;0.90;0.90;;;7.00;99.90;;;;;;5004633;28;20443;-84
2022/01/29 08:01:26;;;;;;;0.80;0.60;;;7.00;99.90;;;;;;5009167;28;20533;-85
2022/01/29 08:03:52;;;;;;;0.70;0.60;;;7.00;99.90;;;;;;5008147;28;20431;-85
2022/01/29 08:06:21;;;;;;;1.20;1.10;;;7.00;99.90;;;;;;5016232;28;20210;-86
2022/01/29 08:08:47;;;;;;;0.70;0.70;;;7.00;99.90;;;;;;5013365;28;20510;-85
2022/01/29 08:11:13;;;;;;;0.80;0.70;;;7.00;99.90;;;;;;5011859;28;20501;-85
2022/01/29 08:13:38;;;;;;;0.90;0.80;;;7.00;99.90;;;;;;4991024;28;20215;-85
2022/01/29 08:16:04;;;;;;;1.83;1.73;;;7.00;99.90;;;;;;5006742;28;20192;-86
2022/01/29 08:18:30;;;;;;;0.80;0.70;;;7.00;99.90;;;;;;4986003;28;20287;-85
2022/01/29 08:20:56;;;;;;;1.60;1.20;;;7.00;99.90;;;;;;5011483;28;20192;-85
2022/01/29 08:23:21;;;;;;;0.70;0.60;;;7.00;99.90;;;;;;4994593;28;20275;-85
2022/01/29 08:25:48;;;;;;;0.83;0.83;;;7.00;99.90;;;;;;5008795;28;20448;-86
2022/01/29 08:28:14;;;;;;;0.90;0.90;;;7.00;99.90;;;;;;5007438;28;20215;-85
2022/01/29 08:30:40;;;;;;;0.70;0.60;;;7.00;99.90;;;;;;5008408;28;20474;-86
2022/01/29 08:33:06;;;;;;;0.80;0.80;;;7.00;99.90;;;;;;5010100;28;20831;-85
2022/01/29 08:35:33;;;;;;;1.60;1.50;;;7.00;99.90;;;;;;5005570;28;20220;-86
2022/01/29 08:37:59;;;;;;;1.13;1.03;;;7.00;99.90;;;;;;5001093;28;20444;-85
2022/01/29 08:40:25;;;;;;;0.80;0.70;;;7.00;99.90;;;;;;5007287;28;20466;-86
2022/01/29 08:42:51;;;;;;;5.37;1.40;;;7.00;99.90;;;;;;5002065;28;20525;-86
2022/01/29 08:45:16;;;;;;;1.23;1.13;;;7.00;99.90;;;;;;5011307;28;20498;-85
2022/01/29 08:47:42;;;;;;;1.13;1.03;;;7.00;99.90;;;;;;5006733;28;20192;-85
2022/01/29 08:50:10;;;;;;;1.57;1.47;;;7.00;99.90;;;;;;5012558;28;20184;-85
2022/01/29 08:52:37;;;;;;;0.90;0.90;;;7.00;99.90;;;;;;5007415;28;20220;-85
2022/01/29 08:55:03;;;;;;;0.93;0.90;;;7.00;99.90;;;;;;4990182;28;20450;-86
2022/01/29 08:57:29;;;;;;;5.33;0.93;;;7.10;99.90;;;;;;5005242;28;20961;-86
2022/01/29 08:59:54;;;;;;;0.90;0.80;;;7.00;99.90;;;;;;4990906;28;20431;-85
2022/01/29 09:02:20;;;;;;;0.80;0.70;;;7.10;99.90;;;;;;5014726;28;20200;-85
2022/01/29 09:04:48;;;;;;;0.80;0.60;;;7.10;99.90;;;;;;4998900;28;20228;-84
2022/01/29 09:07:14;;;;;;;2.30;2.20;;;7.10;99.90;;;;;;5004513;28;20198;-86
2022/01/29 09:09:43;;;;;;;0.70;0.60;;;7.10;99.90;;;;;;5010040;28;20450;-86
2022/01/29 09:12:10;;;;;;;1.63;1.53;;;7.10;99.90;;;;;;5007284;28;20253;-85
2022/01/29 09:14:35;;;;;;;4.10;2.07;;;7.10;99.90;;;;;;4989175;28;21004;-86
2022/01/29 09:17:01;;;;;;;1.90;1.80;;;7.10;99.90;;;;;;5008585;28;20443;-86
2022/01/29 09:19:27;;;;;;;1.17;1.07;;;7.10;99.90;;;;;;5005336;28;20250;-85
2022/01/29 09:21:52;;;;;;;1.27;0.80;;;7.10;99.90;;;;;;5011542;28;20176;-86
2022/01/29 09:24:18;;;;;;;0.93;0.87;;;7.10;99.90;;;;;;4990615;28;20687;-86
2022/01/29 09:26:43;;;;;;;0.80;0.67;;;7.20;99.90;;;;;;4991120;28;20192;-86
2022/01/29 09:29:09;;;;;;;1.50;1.40;;;7.20;99.90;;;;;;5010444;28;20200;-86
2022/01/29 09:31:34;;;;;;;0.80;0.70;;;7.20;99.90;;;;;;5001262;28;20231;-86
2022/01/29 09:34:00;;;;;;;0.80;0.70;;;7.20;99.90;;;;;;4988646;28;20742;-85
2022/01/29 09:36:25;;;;;;;0.80;0.80;;;7.30;99.90;;;;;;5008592;28;20252;-84
2022/01/29 09:38:52;;;;;;;5.03;1.47;;;7.30;99.90;;;;;;4993494;28;20691;-85
2022/01/29 09:41:20;;;;;;;0.80;0.63;;;7.30;99.90;;;;;;5007314;28;20435;-86
2022/01/29 09:43:47;;;;;;;0.80;0.60;;;7.30;99.90;;;;;;5008291;28;20211;-85
2022/01/29 09:46:16;;;;;;;1.80;1.10;;;7.30;99.90;;;;;;5010889;28;20845;-85
2022/01/29 09:48:44;;;;;;;0.80;0.70;;;7.30;99.90;;;;;;4990555;28;20455;-84
2022/01/29 09:51:12;;;;;;;0.77;0.60;;;7.30;99.90;;;;;;5010268;28;20487;-84
2022/01/29 09:53:45;;;;;;;1.23;1.13;;;7.30;99.90;;;;;;5000396;28;20428;-85
2022/01/29 09:56:11;;;;;;;0.80;0.60;;;7.30;99.90;;;;;;5006557;28;20450;-85
2022/01/29 09:58:38;;;;;;;0.80;0.60;;;7.30;99.90;;;;;;5001718;28;20435;-85
2022/01/29 10:01:03;;;;;;;0.90;0.80;;;7.30;99.90;;;;;;5005704;28;20949;-85
2022/01/29 10:03:29;;;;;;;1.03;0.93;;;7.30;99.90;;;;;;5002834;28;20534;-86
2022/01/29 10:06:00;;;;;;;0.80;0.73;;;7.30;99.90;;;;;;5004241;28;20196;-85
2022/01/29 10:08:26;;;;;;;0.80;0.60;;;7.30;99.90;;;;;;5004581;28;20184;-85
2022/01/29 10:10:59;;;;;;;2.20;2.00;;;7.30;99.90;;;;;;4989224;28;20502;-86
2022/01/29 10:13:34;;;;;;;0.80;0.60;;;7.40;99.90;;;;;;4988014;28;20529;-85
2022/01/29 10:16:25;;;;;;;1.10;1.00;;;7.30;99.90;;;;;;4987423;28;20447;-87
2022/01/29 10:19:02;;;;;;;0.80;0.60;;;7.30;99.90;;;;;;5002659;28;20447;-86
2022/01/29 10:21:32;;;;;;;2.13;1.23;;;7.40;99.90;;;;;;4983619;28;20754;-85
2022/01/29 10:24:24;;;;;;;0.80;0.60;;;7.40;99.90;;;;;;4988105;28;20444;-86
2022/01/29 10:26:51;;;;;;;1.20;0.80;;;7.40;99.90;;;;;;5005297;28;20446;-85
2022/01/29 10:29:27;;;;;;;0.80;0.70;;;7.40;99.90;;;;;;5009513;28;20443;-81
2022/01/29 10:31:55;;;;;;;0.80;0.60;;;7.40;99.90;;;;;;5000719;28;20483;-82
2022/01/29 10:34:26;;;;;;;1.33;1.20;;;7.40;99.90;;;;;;4995262;28;20437;-82
2022/01/29 10:37:26;;;;;;;0.80;0.70;;;7.40;99.90;;;;;;4987924;28;20699;-82
2022/01/29 10:39:54;;;;;;;0.80;0.60;;;7.40;99.90;;;;;;4963501;28;20535;-82
2022/01/29 10:42:22;;;;;;;0.80;0.60;;;7.40;99.90;;;;;;4987464;28;20454;-81
2022/01/29 10:44:50;;;;;;;1.33;1.20;;;7.40;99.90;;;;;;5003286;28;20969;-82
2022/01/29 10:47:16;;;;;;;5.43;2.20;;;7.40;99.90;;;;;;5006497;28;21004;-81
2022/01/29 10:49:55;;;;;;;1.63;1.53;;;7.40;99.90;;;;;;5002572;28;20444;-82
2022/01/29 10:52:35;;;;;;;0.80;0.63;;;7.40;99.90;;;;;;5007439;28;20887;-83
2022/01/29 10:55:05;;;;;;;0.80;0.70;;;7.40;99.90;;;;;;5005547;28;20439;-81
2022/01/29 10:57:39;;;;;;;0.83;0.83;;;7.50;99.90;;;;;;5008819;28;20431;-83
2022/01/29 11:00:26;;;;;;;0.80;0.67;;;7.50;99.90;;;;;;5000251;28;20446;-83
2022/01/29 11:02:54;;;;;;;0.97;0.87;;;7.50;99.90;;;;;;5004207;28;20467;-82
2022/01/29 11:05:23;;;;;;;0.80;0.63;;;7.50;99.90;;;;;;5003777;28;20538;-83
2022/01/29 11:07:52;;;;;;;0.77;0.60;;;7.50;99.90;;;;;;5005470;28;20870;-83
2022/01/29 11:10:19;;;;;;;0.83;0.77;;;7.50;99.90;;;;;;4988754;28;20530;-82
2022/01/29 11:12:47;;;;;;;1.40;0.97;;;7.50;99.90;;;;;;4987187;28;21230;-82
2022/01/29 11:15:16;;;;;;;7.20;1.47;;;7.50;99.90;;;;;;4998850;28;20447;-84
2022/01/29 11:17:43;;;;;;;2.00;0.90;;;7.50;99.90;;;;;;4995888;28;20459;-82
2022/01/29 11:20:10;;;;;;;0.80;0.60;;;7.50;99.90;;;;;;5006174;28;20435;-82
2022/01/29 11:22:39;;;;;;;1.00;0.87;;;7.50;99.90;;;;;;4997978;28;20451;-83
2022/01/29 11:25:08;;;;;;;0.80;0.60;;;7.60;99.90;;;;;;5002519;28;20485;-83
2022/01/29 11:27:39;;;;;;;0.80;0.60;;;7.50;99.90;;;;;;5008916;28;20458;-84
2022/01/29 11:30:10;;;;;;;0.80;0.70;;;7.50;99.90;;;;;;4987574;28;20449;-84
2022/01/29 11:33:00;;;;;;;0.80;0.80;;;7.50;99.90;;;;;;4988312;28;20582;-83
2022/01/29 11:35:29;;;;;;;2.30;0.93;;;7.50;99.90;;;;;;4990295;28;20557;-83
2022/01/29 11:38:06;;;;;;;0.80;0.80;;;7.50;99.90;;;;;;5005167;28;20454;-83
2022/01/29 11:40:39;;;;;;;0.80;0.60;;;7.50;99.90;;;;;;5007371;28;20490;-83
2022/01/29 11:43:13;;;;;;;1.73;1.63;;;7.50;99.90;;;;;;5008589;28;20481;-82
2022/01/29 11:46:04;;;;;;;0.80;0.70;;;7.50;99.90;;;;;;5006682;28;20519;-81
2022/01/29 11:48:51;;;;;;;1.17;1.00;;;7.50;99.90;;;;;;4987539;28;20490;-82
2022/01/29 11:51:44;;;;;;;1.03;0.93;;;7.50;99.90;;;;;;4999666;28;20486;-82
2022/01/29 11:54:15;;;;;;;3.00;1.57;;;7.60;99.90;;;;;;5005741;28;21116;-82
2022/01/29 11:56:42;;;;;;;0.80;0.70;;;7.60;99.90;;;;;;4986824;28;20458;-81
2022/01/29 11:59:20;;;;;;;1.13;1.03;;;7.60;99.90;;;;;;5001723;28;20912;-82
2022/01/29 12:01:53;;;;;;;1.00;0.83;;;7.60;99.90;;;;;;5008541;28;20450;-83
2022/01/29 12:04:20;;;;;;;0.80;0.60;;;7.60;99.90;;;;;;4986300;28;20435;-82
2022/01/29 12:07:09;;;;;;;0.80;0.70;;;7.70;99.90;;;;;;4998166;28;20827;-83
2022/01/29 12:10:05;;;;;;;1.10;1.00;;;7.70;99.90;;;;;;4999194;28;20446;-83
2022/01/29 12:12:32;;;;;;;1.30;1.20;;;7.70;99.90;;;;;;4976588;28;20475;-82
2022/01/29 12:15:18;;;;;;;1.13;0.90;;;7.70;99.90;;;;;;5003392;28;20461;-82
2022/01/29 12:17:51;;;;;;;0.93;0.87;;;7.80;99.90;;;;;;4982981;28;20447;-82
2022/01/29 12:20:16;;;;;;;0.80;0.60;;;7.80;99.90;;;;;;4997536;28;20443;-81
2022/01/29 12:22:44;;;;;;;0.80;0.70;;;7.80;99.90;;;;;;4984988;28;20796;-81
2022/01/29 12:25:12;;;;;;;0.80;0.80;;;7.90;99.90;;;;;;5001038;28;20184;-81
2022/01/29 12:27:58;;;;;;;28.07;3.07;;;7.90;99.90;;;;;;5003322;28;20520;-82
2022/01/29 12:30:38;;;;;;;0.80;0.67;;;7.90;99.90;;;;;;5006036;28;20438;-82
2022/01/29 12:33:09;;;;;;;11.40;1.63;;;7.90;99.90;;;;;;5005934;28;20479;-82
2022/01/29 12:35:40;;;;;;;0.80;0.80;;;7.90;99.90;;;;;;5002242;28;20521;-84
2022/01/29 12:38:15;;;;;;;0.80;0.70;;;7.90;99.90;;;;;;5011272;28;20473;-83
2022/01/29 12:40:52;;;;;;;0.77;0.63;;;8.00;99.90;;;;;;5008502;28;20462;-82
2022/01/29 12:43:22;;;;;;;0.80;0.70;;;8.00;99.90;;;;;;4990904;28;20461;-84
2022/01/29 12:45:49;;;;;;;0.80;0.60;;;8.00;99.90;;;;;;5009986;28;20444;-84
2022/01/29 12:48:15;;;;;;;0.80;0.80;;;8.00;99.90;;;;;;5003017;28;20448;-85
2022/01/29 12:50:42;;;;;;;0.80;0.63;;;8.00;99.90;;;;;;5005335;28;20467;-86
2022/01/29 12:53:09;;;;;;;2.27;0.80;;;8.00;99.90;;;;;;4988785;28;20522;-85
2022/01/29 12:55:35;;;;;;;1.03;0.93;;;8.10;99.90;;;;;;4990641;28;20970;-85
2022/01/29 12:58:01;;;;;;;0.80;0.60;;;8.10;99.90;;;;;;4986448;28;20503;-83
2022/01/29 13:00:26;;;;;;;4.10;1.53;;;8.20;99.90;;;;;;5005839;28;20435;-84
2022/01/29 13:02:52;;;;;;;1.67;1.33;;;8.10;99.90;;;;;;5006469;28;20210;-85
2022/01/29 13:05:19;;;;;;;22.10;1.53;;;8.20;99.90;;;;;;5011621;28;20588;-86
2022/01/29 13:07:46;;;;;;;0.97;0.87;;;8.10;99.90;;;;;;4990238;28;20279;-84
2022/01/29 13:10:12;;;;;;;0.90;0.80;;;8.20;99.90;;;;;;4992611;28;20455;-87
2022/01/29 13:12:38;;;;;;;0.80;0.60;;;8.20;99.90;;;;;;5006730;28;20489;-85
2022/01/29 13:15:04;;;;;;;0.80;0.60;;;8.20;99.90;;;;;;4998693;28;20435;-84